createdAt,value
2018-02-17T00:02:07.835Z,10.57
2018-02-17T00:04:36.673Z,9.30
2018-02-17T00:07:05.542Z,8.77
2018-02-17T00:09:34.388Z,8.93
2018-02-17T00:12:03.856Z,11.93
2018-02-17T00:14:32.739Z,10.60
2018-02-17T00:17:01.583Z,11.13
2018-02-17T00:19:30.715Z,10.57
2018-02-17T00:22:00.972Z,13.80
2018-02-17T00:24:29.864Z,12.73
2018-02-17T00:26:59.550Z,12.77
2018-02-17T00:29:28.491Z,12.40
2018-02-17T00:31:57.867Z,12.80
2018-02-17T00:34:26.740Z,12.83
2018-02-17T00:36:55.585Z,13.23
2018-02-17T00:39:24.425Z,12.23
2018-02-17T00:41:53.305Z,13.77
2018-02-17T00:44:22.138Z,11.13
2018-02-17T00:46:51.045Z,9.03
2018-02-17T00:49:20.792Z,12.70
2018-02-17T00:51:49.627Z,10.47
2018-02-17T00:54:19.062Z,11.67
2018-02-17T00:56:47.926Z,10.57
2018-02-17T00:59:16.777Z,11.20
2018-02-17T01:01:45.639Z,12.47
2018-02-17T01:04:14.500Z,11.93
2018-02-17T01:06:43.686Z,12.27
2018-02-17T01:09:12.527Z,11.43
2018-02-17T01:11:41.450Z,10.83
2018-02-17T01:14:10.296Z,12.53
2018-02-17T01:16:40.511Z,11.83
2018-02-17T01:19:09.380Z,11.03
2018-02-17T01:21:38.819Z,10.43
2018-02-17T01:24:07.646Z,9.23
2018-02-17T01:26:36.513Z,9.73
2018-02-17T01:29:05.345Z,9.67
2018-02-17T01:31:34.203Z,10.60
2018-02-17T01:34:03.077Z,9.40
2018-02-17T01:36:32.575Z,10.03
2018-02-17T01:39:01.419Z,11.70
2018-02-17T01:41:30.291Z,12.20
2018-02-17T01:43:59.123Z,11.70
2018-02-17T01:46:27.956Z,11.37
2018-02-17T01:48:56.815Z,10.13
2018-02-17T01:51:25.651Z,11.57
2018-02-17T01:53:54.500Z,10.70
2018-02-17T01:56:23.391Z,10.80
2018-02-17T01:58:52.259Z,11.87
2018-02-17T02:01:21.144Z,10.57
2018-02-17T02:03:49.988Z,8.97
2018-02-17T02:06:19.474Z,10.47
2018-02-17T02:08:48.339Z,11.90
2018-02-17T02:11:17.621Z,9.17
2018-02-17T02:13:46.491Z,11.63
2018-02-17T02:16:15.357Z,10.93
2018-02-17T02:18:44.210Z,11.03
2018-02-17T02:21:13.065Z,8.80
2018-02-17T02:23:41.967Z,10.50
2018-02-17T02:26:11.159Z,8.50
2018-02-17T02:28:39.992Z,11.37
2018-02-17T02:31:08.860Z,10.60
2018-02-17T02:33:37.721Z,8.77
2018-02-17T02:36:06.568Z,11.27
2018-02-17T02:38:35.442Z,9.50
2018-02-17T02:41:04.288Z,11.00
2018-02-17T02:43:33.131Z,10.70
2018-02-17T02:46:02.036Z,10.40
2018-02-17T02:48:30.916Z,10.50
2018-02-17T02:50:59.822Z,10.50
2018-02-17T02:53:28.686Z,11.20
2018-02-17T02:55:57.539Z,12.00
2018-02-17T02:58:27.247Z,10.20
2018-02-17T03:00:56.111Z,11.80
2018-02-17T03:03:25.723Z,11.77
2018-02-17T03:05:55.160Z,11.47
2018-02-17T03:08:24.021Z,10.57
2018-02-17T03:10:52.873Z,10.30
2018-02-17T03:13:21.707Z,11.00
2018-02-17T03:15:50.603Z,12.90
2018-02-17T03:18:20.271Z,11.27
2018-02-17T03:20:49.133Z,11.70
2018-02-17T03:23:18.034Z,11.13
2018-02-17T03:25:47.377Z,11.00
2018-02-17T03:28:16.218Z,10.50
2018-02-17T03:30:45.101Z,10.13
2018-02-17T03:33:13.994Z,11.67
2018-02-17T03:35:42.846Z,11.00
2018-02-17T03:38:11.723Z,11.33
2018-02-17T03:40:40.551Z,11.77
2018-02-17T03:43:09.395Z,10.70
2018-02-17T03:45:39.430Z,10.63
2018-02-17T03:48:08.286Z,11.60
2018-02-17T03:50:37.122Z,10.23
2018-02-17T03:53:05.993Z,9.53
2018-02-17T03:55:34.839Z,10.07
2018-02-17T03:58:03.722Z,9.13
2018-02-17T04:00:32.584Z,10.10
2018-02-17T04:03:01.435Z,9.40
2018-02-17T04:05:30.292Z,10.40
2018-02-17T04:07:59.159Z,10.90
2018-02-17T04:10:28.661Z,9.63
2018-02-17T04:12:57.515Z,10.87
2018-02-17T04:15:26.379Z,10.53
2018-02-17T04:17:55.215Z,10.50
2018-02-17T04:20:24.063Z,11.03
2018-02-17T04:22:52.939Z,9.67
2018-02-17T04:25:21.790Z,10.27
2018-02-17T04:27:50.615Z,9.07
2018-02-17T04:30:19.559Z,9.43
2018-02-17T04:32:49.345Z,10.10
2018-02-17T04:35:18.406Z,10.83
2018-02-17T04:37:47.276Z,10.33
2018-02-17T04:40:23.816Z,9.97
2018-02-17T04:42:54.593Z,9.80
2018-02-17T04:45:23.456Z,10.37
2018-02-17T04:48:00.856Z,10.27
2018-02-17T04:50:49.550Z,10.67
2018-02-17T04:53:24.216Z,9.53
2018-02-17T04:56:07.973Z,10.70
2018-02-17T04:58:40.784Z,9.83
2018-02-17T05:01:13.450Z,9.63
2018-02-17T05:04:01.015Z,9.43
2018-02-17T05:06:32.452Z,9.53
2018-02-17T05:09:04.162Z,10.07
2018-02-17T05:11:33.023Z,9.57
2018-02-17T05:14:04.879Z,9.97
2018-02-17T05:16:40.490Z,9.80
2018-02-17T05:19:15.264Z,9.63
2018-02-17T05:21:45.825Z,10.00
2018-02-17T05:24:16.342Z,9.77
2018-02-17T05:26:45.655Z,9.63
2018-02-17T05:29:24.457Z,10.13
2018-02-17T05:31:54.125Z,8.37
2018-02-17T05:34:40.818Z,9.10
2018-02-17T05:37:09.655Z,9.50
2018-02-17T05:39:50.229Z,9.50
2018-02-17T05:42:33.992Z,8.37
2018-02-17T05:45:06.802Z,9.20
2018-02-17T05:47:36.207Z,10.27
2018-02-17T05:50:07.024Z,9.33
2018-02-17T05:52:35.868Z,10.03
2018-02-17T05:55:05.004Z,9.83
2018-02-17T05:57:33.957Z,10.20
2018-02-17T06:00:02.852Z,9.93
2018-02-17T06:02:32.501Z,9.00
2018-02-17T06:05:01.379Z,9.60
2018-02-17T06:07:30.232Z,9.63
2018-02-17T06:09:59.093Z,9.40
2018-02-17T06:12:28.437Z,9.33
2018-02-17T06:14:57.279Z,9.27
2018-02-17T06:17:26.138Z,8.23
2018-02-17T06:19:55.000Z,8.30
2018-02-17T06:22:23.836Z,9.63
2018-02-17T06:24:53.721Z,8.83
2018-02-17T06:27:23.105Z,8.83
2018-02-17T06:29:51.987Z,9.00
2018-02-17T06:32:20.831Z,9.67
2018-02-17T06:34:49.667Z,8.60
2018-02-17T06:37:19.100Z,9.33
2018-02-17T06:39:48.498Z,9.10
2018-02-17T06:42:17.337Z,9.30
2018-02-17T06:44:46.202Z,9.50
2018-02-17T06:47:15.037Z,9.73
2018-02-17T06:49:43.881Z,8.50
2018-02-17T06:52:12.736Z,8.90
2018-02-17T06:54:41.563Z,8.93
2018-02-17T06:57:11.117Z,9.33
2018-02-17T06:59:40.423Z,9.40
2018-02-17T07:02:09.741Z,9.20
2018-02-17T07:04:38.665Z,9.40
2018-02-17T07:07:07.638Z,9.60
2018-02-17T07:09:36.482Z,9.13
2018-02-17T07:12:05.354Z,10.10
2018-02-17T07:14:34.217Z,10.03
2018-02-17T07:17:03.372Z,9.27
2018-02-17T07:19:32.283Z,10.10
2018-02-17T07:22:01.563Z,8.20
2018-02-17T07:24:31.068Z,9.33
2018-02-17T07:26:59.961Z,8.80
2018-02-17T07:29:28.854Z,9.57
2018-02-17T07:31:57.692Z,9.47
2018-02-17T07:34:26.556Z,8.47
2018-02-17T07:36:55.416Z,8.80
2018-02-17T07:39:24.258Z,9.70
2018-02-17T07:41:53.118Z,9.67
2018-02-17T07:44:21.971Z,9.23
2018-02-17T07:46:51.790Z,9.57
2018-02-17T07:49:20.642Z,8.53
2018-02-17T07:51:49.508Z,9.03
2018-02-17T07:54:18.335Z,10.07
2018-02-17T07:56:47.159Z,9.60
2018-02-17T07:59:16.006Z,9.90
2018-02-17T08:01:44.852Z,10.67
2018-02-17T08:04:13.686Z,10.00
2018-02-17T08:06:42.556Z,10.00
2018-02-17T08:09:12.243Z,9.90
2018-02-17T08:11:41.091Z,10.57
2018-02-17T08:14:10.782Z,10.70
2018-02-17T08:16:40.230Z,11.93
2018-02-17T08:19:09.066Z,11.50
2018-02-17T08:21:37.929Z,11.53
2018-02-17T08:24:09.035Z,10.77
2018-02-17T08:26:38.015Z,14.07
2018-02-17T08:29:07.313Z,9.73
2018-02-17T08:31:36.151Z,8.67
2018-02-17T08:34:05.549Z,10.37
2018-02-17T08:36:34.391Z,10.97
2018-02-17T08:39:03.247Z,9.30
2018-02-17T08:41:32.102Z,11.20
2018-02-17T08:44:00.940Z,11.43
2018-02-17T08:46:29.790Z,11.73
2018-02-17T08:48:58.648Z,11.70
2018-02-17T08:51:27.506Z,11.37
2018-02-17T08:53:57.266Z,11.43
2018-02-17T08:56:26.138Z,11.80
2018-02-17T08:58:55.310Z,10.97
2018-02-17T09:01:24.162Z,11.87
2018-02-17T09:03:53.050Z,12.47
2018-02-17T09:06:21.906Z,11.37
2018-02-17T09:08:50.813Z,11.67
2018-02-17T09:11:19.682Z,11.93
2018-02-17T09:13:49.009Z,12.30
2018-02-17T09:16:17.955Z,11.80
2018-02-17T09:18:46.871Z,11.73
2018-02-17T09:21:16.578Z,11.27
2018-02-17T09:23:45.431Z,12.03
2018-02-17T09:26:14.267Z,11.40
2018-02-17T09:28:43.110Z,11.93
2018-02-17T09:31:12.063Z,11.07
2018-02-17T09:33:40.886Z,12.10
2018-02-17T09:36:10.397Z,11.90
2018-02-17T09:38:40.219Z,12.13
2018-02-17T09:41:09.045Z,12.70
2018-02-17T09:43:37.879Z,12.50
2018-02-17T09:46:06.756Z,12.30
2018-02-17T09:48:35.603Z,13.00
2018-02-17T09:51:04.451Z,12.50
2018-02-17T09:53:33.303Z,12.30
2018-02-17T09:56:02.162Z,12.70
2018-02-17T09:58:31.023Z,13.70
2018-02-17T10:00:59.912Z,13.50
2018-02-17T10:03:28.764Z,13.53
2018-02-17T10:05:57.608Z,12.23
2018-02-17T10:08:26.471Z,12.30
2018-02-17T10:10:56.248Z,12.77
2018-02-17T10:13:25.078Z,12.60
2018-02-17T10:15:53.924Z,12.63
2018-02-17T10:18:22.820Z,12.37
2018-02-17T10:20:51.913Z,12.47
2018-02-17T10:23:20.772Z,12.13
2018-02-17T10:25:49.616Z,12.70
2018-02-17T10:28:18.946Z,12.73
2018-02-17T10:30:47.805Z,13.33
2018-02-17T10:33:16.641Z,13.43
2018-02-17T10:35:45.480Z,11.90
2018-02-17T10:38:15.088Z,12.53
2018-02-17T10:40:43.926Z,12.73
2018-02-17T10:43:12.838Z,13.10
2018-02-17T10:45:41.730Z,13.17
2018-02-17T10:48:11.022Z,13.00
2018-02-17T10:50:39.883Z,12.57
2018-02-17T10:53:08.744Z,14.03
2018-02-17T10:55:37.601Z,12.17
2018-02-17T10:58:06.478Z,12.00
2018-02-17T11:00:35.339Z,13.30
2018-02-17T11:03:04.197Z,12.60
2018-02-17T11:05:33.087Z,12.70
2018-02-17T11:08:01.952Z,11.73
2018-02-17T11:10:31.727Z,12.10
2018-02-17T11:13:00.571Z,12.77
2018-02-17T11:15:30.105Z,11.60
2018-02-17T11:18:00.184Z,12.10
2018-02-17T11:20:29.892Z,12.10
2018-02-17T11:22:59.743Z,11.87
2018-02-17T11:25:29.426Z,11.53
2018-02-17T11:27:58.270Z,10.73
2018-02-17T11:30:27.113Z,11.80
2018-02-17T11:32:55.976Z,11.77
2018-02-17T11:35:24.834Z,11.73
2018-02-17T11:37:53.660Z,10.83
2018-02-17T11:40:23.349Z,11.40
2018-02-17T11:42:52.199Z,10.60
2018-02-17T11:45:21.035Z,10.37
2018-02-17T11:47:49.915Z,11.43
2018-02-17T11:50:19.176Z,11.10
2018-02-17T11:52:48.720Z,10.17
2018-02-17T11:55:17.581Z,9.97
2018-02-17T11:57:46.419Z,9.87
2018-02-17T12:00:15.276Z,10.47
2018-02-17T12:02:44.238Z,10.13
2018-02-17T12:05:13.114Z,9.93
2018-02-17T12:07:41.955Z,10.07
2018-02-17T12:10:11.771Z,10.47
2018-02-17T12:12:40.612Z,10.03
2018-02-17T12:15:09.480Z,11.00
2018-02-17T12:17:38.347Z,10.57
2018-02-17T12:20:07.516Z,9.43
2018-02-17T12:22:36.398Z,10.17
2018-02-17T12:25:05.231Z,10.43
2018-02-17T12:27:34.109Z,10.50
2018-02-17T12:30:03.009Z,9.60
2018-02-17T12:32:31.871Z,9.50
2018-02-17T12:35:00.839Z,9.83
2018-02-17T12:37:29.677Z,10.67
2018-02-17T12:39:59.191Z,9.70
2018-02-17T12:42:28.071Z,10.67
2018-02-17T12:44:56.915Z,10.70
2018-02-17T12:47:25.787Z,9.80
2018-02-17T12:49:54.684Z,10.23
2018-02-17T12:52:24.482Z,10.47
2018-02-17T12:54:53.336Z,10.87
2018-02-17T12:57:22.177Z,9.77
2018-02-17T12:59:51.030Z,10.23
2018-02-17T13:02:19.900Z,10.10
2018-02-17T13:04:48.760Z,9.67
2018-02-17T13:07:17.688Z,10.23
2018-02-17T13:09:47.199Z,10.07
2018-02-17T13:12:16.026Z,9.40
2018-02-17T13:14:44.898Z,10.13
2018-02-17T13:17:14.588Z,10.00
2018-02-17T13:19:43.454Z,11.07
2018-02-17T13:22:12.303Z,10.00
2018-02-17T13:24:41.171Z,9.23
2018-02-17T13:27:10.228Z,9.83
2018-02-17T13:29:39.074Z,10.27
2018-02-17T13:32:07.944Z,10.10
2018-02-17T13:34:36.774Z,9.53
2018-02-17T13:37:05.622Z,9.30
2018-02-17T13:39:34.511Z,9.97
2018-02-17T13:42:03.358Z,10.67
2018-02-17T13:44:33.210Z,10.57
2018-02-17T13:47:02.104Z,10.03
2018-02-17T13:49:30.933Z,9.50
2018-02-17T13:51:59.784Z,9.03
2018-02-17T13:54:28.659Z,9.20
2018-02-17T13:56:57.518Z,9.73
2018-02-17T13:59:26.368Z,9.73
2018-02-17T14:01:55.238Z,8.73
2018-02-17T14:04:24.120Z,9.17
2018-02-17T14:06:52.981Z,9.00
2018-02-17T14:09:21.838Z,9.73
2018-02-17T14:11:52.537Z,9.00
2018-02-17T14:14:21.385Z,9.50
2018-02-17T14:16:50.331Z,9.17
2018-02-17T14:19:19.224Z,9.40
2018-02-17T14:21:48.987Z,10.30
2018-02-17T14:24:17.821Z,9.67
2018-02-17T14:26:46.675Z,9.33
2018-02-17T14:29:15.509Z,9.40
2018-02-17T14:31:44.403Z,9.40
2018-02-17T14:34:13.289Z,9.50
2018-02-17T14:36:42.191Z,8.70
2018-02-17T14:39:11.056Z,9.13
2018-02-17T14:41:39.944Z,8.67
2018-02-17T14:44:08.776Z,8.87
2018-02-17T14:46:37.647Z,9.40
2018-02-17T14:49:06.545Z,8.40
2018-02-17T14:51:35.385Z,8.27
2018-02-17T14:54:04.296Z,7.70
2018-02-17T14:56:33.180Z,9.83
2018-02-17T14:59:02.053Z,10.23
2018-02-17T15:01:30.943Z,10.47
2018-02-17T15:03:59.801Z,9.83
2018-02-17T15:06:28.682Z,10.23
2018-02-17T15:08:57.527Z,10.77
2018-02-17T15:11:26.373Z,10.23
2018-02-17T15:13:55.677Z,9.90
2018-02-17T15:16:24.539Z,9.40
2018-02-17T15:18:53.381Z,9.60
2018-02-17T15:21:22.255Z,8.90
2018-02-17T15:23:51.448Z,8.77
2018-02-17T15:26:20.623Z,8.73
2018-02-17T15:28:49.582Z,7.70
2018-02-17T15:31:19.045Z,7.60
2018-02-17T15:33:47.935Z,8.03
2018-02-17T15:36:16.879Z,8.77
2018-02-17T15:38:45.723Z,8.53
2018-02-17T15:41:14.560Z,8.80
2018-02-17T15:43:43.424Z,9.27
2018-02-17T15:46:13.056Z,8.93
2018-02-17T15:48:41.898Z,9.07
2018-02-17T15:51:11.427Z,8.43
2018-02-17T15:53:41.285Z,9.40
2018-02-17T15:56:11.546Z,9.63
2018-02-17T15:58:40.388Z,8.97
2018-02-17T16:01:10.180Z,9.90
2018-02-17T16:03:39.060Z,10.63
2018-02-17T16:06:07.930Z,10.17
2018-02-17T16:08:36.779Z,10.60
2018-02-17T16:11:05.673Z,11.20
2018-02-17T16:13:34.532Z,10.33
2018-02-17T16:16:03.367Z,9.60
2018-02-17T16:18:32.261Z,11.23
2018-02-17T16:21:01.103Z,9.87
2018-02-17T16:23:29.964Z,10.03
2018-02-17T16:25:59.333Z,9.53
2018-02-17T16:28:28.226Z,9.07
2018-02-17T16:30:57.083Z,9.83
2018-02-17T16:33:25.970Z,9.13
2018-02-17T16:35:54.815Z,10.67
2018-02-17T16:38:24.303Z,10.23
2018-02-17T16:40:53.221Z,10.80
2018-02-17T16:43:22.068Z,10.30
2018-02-17T16:45:50.929Z,10.30
2018-02-17T16:48:20.154Z,9.70
2018-02-17T16:50:49.052Z,10.07
2018-02-17T16:53:17.956Z,9.90
2018-02-17T16:55:46.804Z,10.30
2018-02-17T16:58:15.667Z,10.93
2018-02-17T17:00:44.544Z,10.77
2018-02-17T17:03:13.496Z,10.67
2018-02-17T17:05:42.332Z,10.47
2018-02-17T17:08:11.224Z,9.87
2018-02-17T17:10:40.390Z,11.13
2018-02-17T17:13:09.254Z,11.07
2018-02-17T17:15:38.497Z,11.27
2018-02-17T17:18:07.344Z,11.03
2018-02-17T17:20:36.216Z,10.93
2018-02-17T17:23:05.100Z,11.83
2018-02-17T17:25:34.525Z,11.53
2018-02-17T17:28:04.168Z,11.83
2018-02-17T17:30:33.052Z,11.60
2018-02-17T17:33:01.936Z,11.70
2018-02-17T17:35:31.450Z,11.30
2018-02-17T17:38:00.321Z,11.80
2018-02-17T17:40:29.204Z,11.90
2018-02-17T17:42:58.518Z,11.87
2018-02-17T17:45:27.390Z,12.30
2018-02-17T17:47:56.235Z,10.50
2018-02-17T17:50:25.588Z,12.20
2018-02-17T17:52:54.435Z,12.13
2018-02-17T17:55:23.731Z,12.37
2018-02-17T17:57:52.605Z,12.03
2018-02-17T18:00:21.439Z,12.40
2018-02-17T18:02:50.321Z,11.33
2018-02-17T18:05:19.207Z,12.17
2018-02-17T18:07:48.057Z,12.87
2018-02-17T18:10:16.893Z,12.93
2018-02-17T18:12:45.752Z,13.53
2018-02-17T18:15:14.608Z,12.87
2018-02-17T18:17:43.443Z,13.23
2018-02-17T18:20:12.390Z,13.00
2018-02-17T18:22:41.241Z,12.67
2018-02-17T18:25:10.097Z,12.73
2018-02-17T18:27:39.703Z,13.50
2018-02-17T18:30:08.554Z,13.10
2018-02-17T18:32:37.459Z,13.10
2018-02-17T18:35:06.349Z,13.00
2018-02-17T18:37:35.236Z,13.40
2018-02-17T18:40:04.092Z,12.67
2018-02-17T18:42:33.080Z,11.93
2018-02-17T18:45:01.916Z,13.03
2018-02-17T18:47:31.337Z,12.73
2018-02-17T18:50:00.268Z,14.23
2018-02-17T18:52:29.114Z,12.43
2018-02-17T18:54:58.009Z,13.50
2018-02-17T18:57:27.416Z,13.03
2018-02-17T18:59:56.247Z,13.87
2018-02-17T19:02:25.072Z,15.10
2018-02-17T19:04:53.967Z,15.30
2018-02-17T19:07:22.810Z,14.00
2018-02-17T19:09:51.732Z,13.63
2018-02-17T19:12:20.585Z,14.50
2018-02-17T19:14:49.429Z,15.20
2018-02-17T19:17:18.351Z,14.40
2018-02-17T19:19:47.438Z,14.23
2018-02-17T19:22:16.297Z,15.43
2018-02-17T19:24:45.140Z,13.90
2018-02-17T19:27:14.147Z,15.53
2018-02-17T19:29:43.003Z,15.40
2018-02-17T19:32:11.853Z,15.33
2018-02-17T19:34:40.727Z,15.23
2018-02-17T19:37:09.567Z,17.50
2018-02-17T19:39:39.451Z,16.80
2018-02-17T19:42:08.417Z,17.17
2018-02-17T19:44:37.302Z,19.87
2018-02-17T19:47:06.935Z,16.37
2018-02-17T19:49:35.818Z,18.27
2018-02-17T19:52:04.793Z,16.53
2018-02-17T19:54:33.615Z,17.67
2018-02-17T19:57:02.489Z,16.37
2018-02-17T19:59:32.300Z,15.87
2018-02-17T20:02:01.149Z,15.10
2018-02-17T20:04:30.492Z,13.67
2018-02-17T20:07:00.167Z,14.97
2018-02-17T20:09:29.576Z,14.30
2018-02-17T20:11:59.105Z,13.73
2018-02-17T20:14:28.111Z,13.93
2018-02-17T20:16:56.989Z,12.53
2018-02-17T20:19:25.857Z,13.77
2018-02-17T20:21:54.716Z,13.20
2018-02-17T20:24:23.567Z,13.90
2018-02-17T20:26:52.441Z,14.10
2018-02-17T20:29:21.296Z,14.50
2018-02-17T20:31:50.180Z,14.30
2018-02-17T20:34:19.095Z,13.40
2018-02-17T20:36:47.937Z,13.57
2018-02-17T20:39:16.785Z,13.03
2018-02-17T20:41:45.757Z,13.87
2018-02-17T20:44:14.595Z,13.20
2018-02-17T20:46:43.438Z,12.97
2018-02-17T20:49:12.319Z,12.20
2018-02-17T20:51:41.172Z,12.67
2018-02-17T20:54:10.021Z,13.50
2018-02-17T20:56:39.560Z,12.50
2018-02-17T20:59:08.425Z,13.40
2018-02-17T21:01:37.277Z,12.27
2018-02-17T21:04:06.164Z,12.63
2018-02-17T21:06:35.717Z,13.40
2018-02-17T21:09:05.453Z,14.00
2018-02-17T21:11:34.433Z,12.37
2018-02-17T21:14:03.293Z,12.97
2018-02-17T21:16:32.729Z,12.87
2018-02-17T21:19:02.822Z,13.57
2018-02-17T21:21:32.437Z,13.57
2018-02-17T21:24:01.296Z,13.00
2018-02-17T21:26:30.175Z,12.30
2018-02-17T21:28:59.112Z,12.83
2018-02-17T21:31:27.957Z,12.83
2018-02-17T21:33:56.835Z,13.93
2018-02-17T21:36:25.686Z,13.13
2018-02-17T21:38:54.537Z,13.63
2018-02-17T21:41:23.413Z,12.33
2018-02-17T21:43:52.259Z,12.70
2018-02-17T21:46:21.115Z,11.93
2018-02-17T21:48:49.981Z,12.93
2018-02-17T21:51:19.091Z,12.53
2018-02-17T21:53:47.935Z,12.60
2018-02-17T21:56:16.843Z,15.37
2018-02-17T21:58:45.727Z,13.50
2018-02-17T22:01:14.563Z,13.03
2018-02-17T22:03:43.425Z,14.83
2018-02-17T22:06:13.063Z,13.13
2018-02-17T22:08:42.183Z,14.63
2018-02-17T22:11:11.073Z,14.13
2018-02-17T22:13:40.955Z,12.97
2018-02-17T22:16:11.167Z,13.83
2018-02-17T22:18:40.029Z,16.87
2018-02-17T22:21:09.131Z,16.60
2018-02-17T22:23:38.016Z,14.53
2018-02-17T22:26:07.443Z,16.90
2018-02-17T22:28:36.531Z,15.93
2018-02-17T22:31:05.452Z,16.00
2018-02-17T22:33:34.970Z,12.63
2018-02-17T22:36:04.423Z,15.63
2018-02-17T22:38:33.371Z,17.37
2018-02-17T22:41:02.292Z,18.90
2018-02-17T22:43:31.970Z,17.47
2018-02-17T22:46:00.837Z,15.37
2018-02-17T22:48:29.708Z,14.70
2018-02-17T22:50:59.191Z,16.80
2018-02-17T22:53:28.723Z,13.90
2018-02-17T22:55:57.604Z,15.00
2018-02-17T22:58:26.528Z,16.30
2018-02-17T23:00:55.417Z,12.63
2018-02-17T23:03:24.703Z,19.23
2018-02-17T23:05:53.694Z,16.13
2018-02-17T23:08:22.689Z,22.17
2018-02-17T23:10:52.307Z,15.67
2018-02-17T23:13:21.159Z,18.33
2018-02-17T23:15:50.055Z,14.30
2018-02-17T23:18:19.887Z,13.60
2018-02-17T23:20:49.493Z,15.33
2018-02-17T23:23:18.693Z,14.17
2018-02-17T23:25:47.531Z,16.50
2018-02-17T23:28:17.057Z,14.13
2018-02-17T23:30:46.350Z,14.53
2018-02-17T23:33:15.462Z,14.40
2018-02-17T23:35:44.587Z,15.90
2018-02-17T23:38:13.480Z,13.00
2018-02-17T23:40:43.040Z,13.30
2018-02-17T23:43:12.287Z,13.47
2018-02-17T23:45:42.753Z,15.17
2018-02-17T23:48:11.587Z,15.13
2018-02-17T23:50:40.429Z,14.53
2018-02-17T23:53:09.297Z,14.67
2018-02-17T23:55:38.611Z,17.57
2018-02-17T23:58:07.463Z,15.03
